Time,TemperatureF,DewpointF,PressureIn,WindDirection,WindDirectionDegrees,WindSpeedMPH,WindSpeedGustMPH,Humidity,HourlyPrecipIn,Conditions,Clouds,dailyrainin,SoftwareType,DateUTC
2013-07-31 00:12:00,69.6,46.1,29.79,NW,313,0.0,10.0,43,0.00,,,0.00,VWS V12.07,2013-07-31 07:12:00,
2013-07-31 00:19:00,69.1,45.7,29.79,NW,313,0.0,10.0,43,0.00,,,0.00,VWS V12.07,2013-07-31 07:19:00,
2013-07-31 00:29:00,68.4,45.7,29.80,NW,313,0.0,10.0,44,0.00,,,0.00,VWS V12.07,2013-07-31 07:29:00,
2013-07-31 00:41:00,68.6,45.2,29.79,NW,313,0.0,10.0,43,0.00,,,0.00,VWS V12.07,2013-07-31 07:41:00,
2013-07-31 00:49:00,68.6,45.8,29.79,NW,313,0.0,10.0,44,0.00,,,0.00,VWS V12.07,2013-07-31 07:49:00,
2013-07-31 00:59:00,67.9,45.8,29.79,NW,313,0.0,10.0,45,0.00,,,0.00,VWS V12.07,2013-07-31 07:59:00,
2013-07-31 01:11:00,67.4,45.3,29.79,NW,313,0.0,10.0,45,0.00,,,0.00,VWS V12.07,2013-07-31 08:11:00,
2013-07-31 01:19:00,67.4,45.9,29.79,NW,313,0.0,10.0,46,0.00,,,0.00,VWS V12.07,2013-07-31 08:19:00,
2013-07-31 01:29:00,67.4,45.3,29.79,NW,313,0.0,10.0,45,0.00,,,0.00,VWS V12.07,2013-07-31 08:29:00,
2013-07-31 01:41:00,67.3,45.2,29.78,NW,313,0.0,10.0,45,0.00,,,0.00,VWS V12.07,2013-07-31 08:41:00,
2013-07-31 01:49:00,67.3,45.2,29.78,NW,313,0.0,10.0,45,0.00,,,0.00,VWS V12.07,2013-07-31 08:49:00,
2013-07-31 01:59:00,67.1,45.1,29.78,NW,313,0.0,10.0,45,0.00,,,0.00,VWS V12.07,2013-07-31 08:59:00,
2013-07-31 02:12:00,66.8,44.8,29.78,NW,313,0.0,10.0,45,0.00,,,0.00,VWS V12.07,2013-07-31 09:12:00,
2013-07-31 02:18:00,66.8,45.4,29.78,NW,313,0.0,10.0,46,0.00,,,0.00,VWS V12.07,2013-07-31 09:18:00,
2013-07-31 02:29:00,67.1,45.1,29.77,NW,313,0.0,10.0,45,0.00,,,0.00,VWS V12.07,2013-07-31 09:29:00,
2013-07-31 02:41:00,66.6,45.2,29.77,NW,313,0.0,10.0,46,0.00,,,0.00,VWS V12.07,2013-07-31 09:41:00,
2013-07-31 02:49:00,66.3,44.9,29.77,NW,313,0.0,10.0,46,0.00,,,0.00,VWS V12.07,2013-07-31 09:49:00,
2013-07-31 02:59:00,65.8,45.6,29.78,NW,313,0.0,10.0,48,0.00,,,0.00,VWS V12.07,2013-07-31 09:59:00,
2013-07-31 03:11:00,65.8,45.6,29.78,NW,313,0.0,10.0,48,0.00,,,0.00,VWS V12.07,2013-07-31 10:11:00,
2013-07-31 03:19:00,65.8,45.6,29.78,NW,313,0.0,10.0,48,0.00,,,0.00,VWS V12.07,2013-07-31 10:19:00,
2013-07-31 03:29:00,65.3,45.7,29.79,NW,313,0.0,10.0,49,0.00,,,0.00,VWS V12.07,2013-07-31 10:29:00,
2013-07-31 03:41:00,65.0,45.4,29.79,NW,313,0.0,10.0,49,0.00,,,0.00,VWS V12.07,2013-07-31 10:41:00,
2013-07-31 03:48:00,64.7,45.7,29.79,NW,313,0.0,10.0,50,0.00,,,0.00,VWS V12.07,2013-07-31 10:48:00,
2013-07-31 03:59:00,64.3,45.3,29.79,NW,313,0.0,10.0,50,0.00,,,0.00,VWS V12.07,2013-07-31 10:59:00,
2013-07-31 04:12:00,64.3,45.3,29.80,NW,313,0.0,10.0,50,0.00,,,0.00,VWS V12.07,2013-07-31 11:12:00,
2013-07-31 04:19:00,64.5,45.5,29.80,NW,313,0.0,10.0,50,0.00,,,0.00,VWS V12.07,2013-07-31 11:19:00,
2013-07-31 04:28:00,64.7,45.1,29.80,NW,313,0.0,10.0,49,0.00,,,0.00,VWS V12.07,2013-07-31 11:28:00,
2013-07-31 04:41:00,64.5,45.5,29.80,NW,313,0.0,10.0,50,0.00,,,0.00,VWS V12.07,2013-07-31 11:41:00,
2013-07-31 04:49:00,64.2,45.2,29.80,NW,313,0.0,10.0,50,0.00,,,0.00,VWS V12.07,2013-07-31 11:49:00,
2013-07-31 04:59:00,64.3,45.3,29.81,NW,313,0.0,10.0,50,0.00,,,0.00,VWS V12.07,2013-07-31 11:59:00,
2013-07-31 05:12:00,64.3,45.3,29.81,NW,313,0.0,10.0,50,0.00,,,0.00,VWS V12.07,2013-07-31 12:12:00,
2013-07-31 05:19:00,64.0,45.5,29.81,NW,313,0.0,10.0,51,0.00,,,0.00,VWS V12.07,2013-07-31 12:19:00,
2013-07-31 05:29:00,63.5,45.6,29.82,NW,313,0.0,10.0,52,0.00,,,0.00,VWS V12.07,2013-07-31 12:29:00,
2013-07-31 05:41:00,64.2,44.7,29.81,NW,313,0.0,10.0,49,0.00,,,0.00,VWS V12.07,2013-07-31 12:41:00,
2013-07-31 05:48:00,64.7,44.6,29.81,NW,313,0.0,10.0,48,0.00,,,0.00,VWS V12.07,2013-07-31 12:48:00,
2013-07-31 05:58:00,64.5,44.4,29.81,NW,313,0.0,10.0,48,0.00,,,0.00,VWS V12.07,2013-07-31 12:58:00,
2013-07-31 06:11:00,63.4,44.5,29.82,NW,313,1.0,10.0,50,0.00,,,0.00,VWS V12.07,2013-07-31 13:11:00,
2013-07-31 06:19:00,63.2,43.7,29.82,NW,313,0.0,10.0,49,0.00,,,0.00,VWS V12.07,2013-07-31 13:19:00,
2013-07-31 06:29:00,63.4,43.9,29.83,NW,313,0.0,10.0,49,0.00,,,0.00,VWS V12.07,2013-07-31 13:29:00,
2013-07-31 06:41:00,64.0,43.4,29.83,NW,313,0.0,10.0,47,0.00,,,0.00,VWS V12.07,2013-07-31 13:41:00,
2013-07-31 06:49:00,64.2,43.6,29.83,NW,313,0.0,10.0,47,0.00,,,0.00,VWS V12.07,2013-07-31 13:49:00,
2013-07-31 06:59:00,64.7,44.0,29.84,NW,313,0.0,10.0,47,0.00,,,0.00,VWS V12.07,2013-07-31 13:59:00,
2013-07-31 07:12:00,65.6,44.8,29.83,NW,313,0.0,10.0,47,0.00,,,0.00,VWS V12.07,2013-07-31 14:12:00,
2013-07-31 07:19:00,66.1,45.3,29.83,NW,313,0.0,10.0,47,0.00,,,0.00,VWS V12.07,2013-07-31 14:19:00,
2013-07-31 07:29:00,67.3,45.8,29.84,NW,313,0.0,10.0,46,0.00,,,0.00,VWS V12.07,2013-07-31 14:29:00,
2013-07-31 07:41:00,69.4,46.0,29.84,NW,313,0.0,10.0,43,0.00,,,0.00,VWS V12.07,2013-07-31 14:41:00,
2013-07-31 07:49:00,71.3,46.4,29.84,NW,313,0.0,10.0,41,0.00,,,0.00,VWS V12.07,2013-07-31 14:49:00,
2013-07-31 07:59:00,73.9,46.0,29.83,NW,313,0.0,10.0,37,0.00,,,0.00,VWS V12.07,2013-07-31 14:59:00,
2013-07-31 08:13:00,76.7,46.2,29.82,NW,313,0.0,10.0,34,0.00,,,0.00,VWS V12.07,2013-07-31 15:13:00,
2013-07-31 08:19:00,77.6,46.2,29.82,NW,313,0.0,10.0,33,0.00,,,0.00,VWS V12.07,2013-07-31 15:19:00,
2013-07-31 08:29:00,79.6,42.7,29.83,NW,313,0.0,10.0,27,0.00,,,0.00,VWS V12.07,2013-07-31 15:29:00,
2013-07-31 08:41:00,80.3,43.3,29.83,NNE,23,0.0,10.0,27,0.00,,,0.00,VWS V12.07,2013-07-31 15:41:00,
2013-07-31 08:49:00,81.1,44.0,29.83,NNE,25,0.0,10.0,27,0.00,,,0.00,VWS V12.07,2013-07-31 15:49:00,
2013-07-31 08:59:00,81.6,44.4,29.83,NNE,30,0.0,10.0,27,0.00,,,0.00,VWS V12.07,2013-07-31 15:59:00,
2013-07-31 09:11:00,82.8,43.4,29.83,East,89,0.0,10.0,25,0.00,,,0.00,VWS V12.07,2013-07-31 16:11:00,
2013-07-31 09:19:00,83.0,43.6,29.83,East,89,0.0,10.0,25,0.00,,,0.00,VWS V12.07,2013-07-31 16:19:00,
2013-07-31 09:29:00,83.8,44.3,29.83,East,89,0.0,10.0,25,0.00,,,0.00,VWS V12.07,2013-07-31 16:29:00,
2013-07-31 09:41:00,83.8,44.3,29.83,ESE,120,0.0,10.0,25,0.00,,,0.00,VWS V12.07,2013-07-31 16:41:00,
2013-07-31 09:49:00,83.4,43.9,29.83,SSE,164,0.0,10.0,25,0.00,,,0.00,VWS V12.07,2013-07-31 16:49:00,
2013-07-31 09:59:00,83.8,44.3,29.83,SSE,150,3.0,10.0,25,0.00,,,0.00,VWS V12.07,2013-07-31 16:59:00,
2013-07-31 10:13:00,84.1,44.5,29.83,SE,142,0.0,10.0,25,0.00,,,0.00,VWS V12.07,2013-07-31 17:13:00,
2013-07-31 10:18:00,84.5,44.9,29.83,SW,236,5.0,10.0,25,0.00,,,0.00,VWS V12.07,2013-07-31 17:18:00,
2013-07-31 10:29:00,85.1,45.4,29.83,ESE,120,4.0,10.0,25,0.00,,,0.00,VWS V12.07,2013-07-31 17:29:00,
2013-07-31 10:41:00,85.9,46.0,29.83,ESE,104,2.0,10.0,25,0.00,,,0.00,VWS V12.07,2013-07-31 17:41:00,
2013-07-31 10:49:00,86.1,46.2,29.83,SSE,148,0.0,10.0,25,0.00,,,0.00,VWS V12.07,2013-07-31 17:49:00,
2013-07-31 10:59:00,86.5,45.5,29.83,SE,144,0.0,10.0,24,0.00,,,0.00,VWS V12.07,2013-07-31 17:59:00,
2013-07-31 11:12:00,85.9,43.8,29.83,SSE,160,2.0,10.0,23,0.00,,,0.00,VWS V12.07,2013-07-31 18:12:00,
2013-07-31 11:19:00,86.1,45.1,29.83,SSE,167,1.0,10.0,24,0.00,,,0.00,VWS V12.07,2013-07-31 18:19:00,
2013-07-31 11:29:00,87.6,45.3,29.83,SE,128,3.0,10.0,23,0.00,,,0.00,VWS V12.07,2013-07-31 18:29:00,
2013-07-31 11:41:00,87.6,44.1,29.83,East,96,3.0,10.0,22,0.00,,,0.00,VWS V12.07,2013-07-31 18:41:00,
2013-07-31 11:49:00,88.0,44.4,29.83,South,173,0.0,10.0,22,0.00,,,0.00,VWS V12.07,2013-07-31 18:49:00,
2013-07-31 11:59:00,89.0,44.0,29.82,South,172,2.0,10.0,21,0.00,,,0.00,VWS V12.07,2013-07-31 18:59:00,
2013-07-31 12:12:00,88.6,44.9,29.82,SE,134,1.0,10.0,22,0.00,,,0.00,VWS V12.07,2013-07-31 19:12:00,
2013-07-31 12:19:00,88.6,43.7,29.82,South,174,3.0,10.0,21,0.00,,,0.00,VWS V12.07,2013-07-31 19:19:00,
2013-07-31 12:29:00,89.7,44.6,29.81,South,175,3.0,10.0,21,0.00,,,0.00,VWS V12.07,2013-07-31 19:29:00,
2013-07-31 12:41:00,90.5,44.0,29.81,South,174,1.0,10.0,20,0.00,,,0.00,VWS V12.07,2013-07-31 19:41:00,
2013-07-31 12:49:00,91.0,43.1,29.81,SE,125,0.0,10.0,19,0.00,,,0.00,VWS V12.07,2013-07-31 19:49:00,
2013-07-31 12:59:00,91.2,43.2,29.80,South,172,1.0,10.0,19,0.00,,,0.00,VWS V12.07,2013-07-31 19:59:00,
2013-07-31 13:11:00,91.8,43.7,29.79,ESE,122,0.0,10.0,19,0.00,,,0.00,VWS V12.07,2013-07-31 20:11:00,
2013-07-31 13:19:00,91.8,43.7,29.79,South,186,6.0,10.0,19,0.00,,,0.00,VWS V12.07,2013-07-31 20:19:00,
2013-07-31 13:29:00,91.8,43.7,29.79,SE,142,3.0,10.0,19,0.00,,,0.00,VWS V12.07,2013-07-31 20:29:00,
2013-07-31 13:41:00,91.0,44.4,29.79,WSW,252,2.0,10.0,20,0.00,,,0.00,VWS V12.07,2013-07-31 20:41:00,
2013-07-31 13:49:00,91.4,43.4,29.79,NW,309,1.0,10.0,19,0.00,,,0.00,VWS V12.07,2013-07-31 20:49:00,
2013-07-31 13:59:00,91.8,43.7,29.78,ESE,122,4.0,10.0,19,0.00,,,0.00,VWS V12.07,2013-07-31 20:59:00,
2013-07-31 14:12:00,92.1,44.0,29.78,SE,137,4.0,10.0,19,0.00,,,0.00,VWS V12.07,2013-07-31 21:12:00,
2013-07-31 14:19:00,91.8,43.7,29.78,South,179,4.0,10.0,19,0.00,,,0.00,VWS V12.07,2013-07-31 21:19:00,
2013-07-31 14:29:00,91.6,42.2,29.77,South,179,6.0,10.0,18,0.00,,,0.00,VWS V12.07,2013-07-31 21:29:00,
2013-07-31 14:41:00,91.8,42.3,29.78,SSW,200,7.0,10.0,18,0.00,,,0.00,VWS V12.07,2013-07-31 21:41:00,
2013-07-31 14:49:00,91.8,39.3,29.78,West,266,4.0,10.0,16,0.00,,,0.00,VWS V12.07,2013-07-31 21:49:00,
2013-07-31 14:59:00,92.3,38.0,29.78,North,0,1.0,10.0,15,0.00,,,0.00,VWS V12.07,2013-07-31 21:59:00,
2013-07-31 15:11:00,92.1,36.1,29.77,SSE,160,7.0,10.0,14,0.00,,,0.00,VWS V12.07,2013-07-31 22:11:00,
2013-07-31 15:19:00,92.3,36.3,29.77,South,170,6.0,10.0,14,0.00,,,0.00,VWS V12.07,2013-07-31 22:19:00,
2013-07-31 15:29:00,91.4,35.6,29.77,ESE,104,0.0,10.0,14,0.00,,,0.00,VWS V12.07,2013-07-31 22:29:00,
2013-07-31 15:41:00,92.1,36.1,29.77,SSW,195,0.0,10.0,14,0.00,,,0.00,VWS V12.07,2013-07-31 22:41:00,
2013-07-31 15:49:00,91.6,37.5,29.77,NW,314,3.0,10.0,15,0.00,,,0.00,VWS V12.07,2013-07-31 22:49:00,
2013-07-31 15:59:00,91.2,37.2,29.76,North,0,0.0,10.0,15,0.00,,,0.00,VWS V12.07,2013-07-31 22:59:00,
2013-07-31 16:11:00,90.5,36.6,29.76,WNW,296,3.0,10.0,15,0.00,,,0.00,VWS V12.07,2013-07-31 23:11:00,
2013-07-31 16:19:00,90.7,36.8,29.76,WNW,283,0.0,10.0,15,0.00,,,0.00,VWS V12.07,2013-07-31 23:19:00,
2013-07-31 16:29:00,91.2,37.2,29.76,West,280,2.0,10.0,15,0.00,,,0.00,VWS V12.07,2013-07-31 23:29:00,
2013-07-31 16:41:00,91.0,37.0,29.76,SSW,198,3.0,10.0,15,0.00,,,0.00,VWS V12.07,2013-07-31 23:41:00,
2013-07-31 16:49:00,90.3,36.4,29.76,South,169,3.0,10.0,15,0.00,,,0.00,VWS V12.07,2013-07-31 23:49:00,
2013-07-31 16:59:00,90.3,36.4,29.75,North,0,1.0,10.0,15,0.00,,,0.00,VWS V12.07,2013-07-31 23:59:00,
2013-07-31 17:12:00,89.9,34.4,29.75,WSW,254,0.0,10.0,14,0.00,,,0.00,VWS V12.07,2013-08-01 00:12:00,
2013-07-31 17:19:00,89.5,34.1,29.75,WSW,249,1.0,10.0,14,0.00,,,0.00,VWS V12.07,2013-08-01 00:19:00,
2013-07-31 17:29:00,88.8,36.9,29.76,NE,52,1.0,10.0,16,0.00,,,0.00,VWS V12.07,2013-08-01 00:29:00,
2013-07-31 17:41:00,88.0,37.8,29.75,NNW,346,4.0,10.0,17,0.00,,,0.00,VWS V12.07,2013-08-01 00:41:00,
2013-07-31 17:49:00,87.6,37.5,29.75,SW,235,4.0,10.0,17,0.00,,,0.00,VWS V12.07,2013-08-01 00:49:00,
2013-07-31 17:59:00,87.4,37.3,29.76,SW,233,1.0,10.0,17,0.00,,,0.00,VWS V12.07,2013-08-01 00:59:00,
2013-07-31 18:20:00,86.3,37.8,29.75,NNW,328,2.0,10.0,18,0.00,,,0.00,VWS V12.07,2013-08-01 01:20:00,
2013-07-31 18:29:00,85.7,37.4,29.75,East,87,1.0,10.0,18,0.00,,,0.00,VWS V12.07,2013-08-01 01:29:00,
2013-07-31 18:41:00,85.1,36.9,29.75,SSE,153,6.0,10.0,18,0.00,,,0.00,VWS V12.07,2013-08-01 01:41:00,
2013-07-31 18:49:00,84.7,36.5,29.75,SSE,150,0.0,10.0,18,0.00,,,0.00,VWS V12.07,2013-08-01 01:49:00,
2013-07-31 18:59:00,84.3,36.2,29.75,South,174,0.0,10.0,18,0.00,,,0.00,VWS V12.07,2013-08-01 01:59:00,
2013-07-31 19:12:00,83.6,35.7,29.76,West,272,3.0,10.0,18,0.00,,,0.00,VWS V12.07,2013-08-01 02:12:00,
2013-07-31 19:19:00,83.2,36.7,29.76,West,280,0.0,10.0,19,0.00,,,0.00,VWS V12.07,2013-08-01 02:19:00,
2013-07-31 19:29:00,82.6,36.2,29.74,NW,324,0.0,10.0,19,0.00,,,0.00,VWS V12.07,2013-08-01 02:29:00,
2013-07-31 19:41:00,81.8,36.8,29.75,NW,323,0.0,10.0,20,0.00,,,0.00,VWS V12.07,2013-08-01 02:41:00,
2013-07-31 19:49:00,81.2,36.4,29.75,NW,309,0.0,10.0,20,0.00,,,0.00,VWS V12.07,2013-08-01 02:49:00,
2013-07-31 19:59:00,80.3,35.6,29.75,WNW,290,0.0,10.0,20,0.00,,,0.00,VWS V12.07,2013-08-01 02:59:00,
2013-07-31 20:12:00,79.2,34.7,29.75,NW,310,1.0,10.0,20,0.00,,,0.00,VWS V12.07,2013-08-01 03:12:00,
2013-07-31 20:19:00,79.0,34.5,29.75,NW,312,0.0,10.0,20,0.00,,,0.00,VWS V12.07,2013-08-01 03:19:00,
2013-07-31 20:29:00,78.8,33.1,29.74,NW,304,0.0,10.0,19,0.00,,,0.00,VWS V12.07,2013-08-01 03:29:00,
2013-07-31 20:49:00,77.0,32.9,29.74,NW,319,0.0,10.0,20,0.00,,,0.00,VWS V12.07,2013-08-01 03:49:00,
2013-07-31 20:59:00,76.0,34.5,29.75,NW,319,0.0,10.0,22,0.00,,,0.00,VWS V12.07,2013-08-01 03:59:00,
2013-07-31 21:12:00,74.6,34.4,29.76,NW,319,0.0,10.0,23,0.00,,,0.00,VWS V12.07,2013-08-01 04:12:00,
2013-07-31 21:19:00,73.5,34.5,29.76,NW,319,0.0,10.0,24,0.00,,,0.00,VWS V12.07,2013-08-01 04:19:00,
2013-07-31 21:29:00,73.0,33.0,29.76,West,273,0.0,10.0,23,0.00,,,0.00,VWS V12.07,2013-08-01 04:29:00,
2013-07-31 21:41:00,72.5,32.6,29.76,West,275,0.0,10.0,23,0.00,,,0.00,VWS V12.07,2013-08-01 04:41:00,
2013-07-31 21:49:00,72.1,32.3,29.76,West,275,0.0,10.0,23,0.00,,,0.00,VWS V12.07,2013-08-01 04:49:00,
2013-07-31 21:59:00,71.3,32.7,29.76,NNE,30,0.0,10.0,24,0.00,,,0.00,VWS V12.07,2013-08-01 04:59:00,
2013-07-31 22:11:00,71.1,32.5,29.77,North,0,0.0,10.0,24,0.00,,,0.00,VWS V12.07,2013-08-01 05:11:00,
2013-07-31 22:19:00,71.3,33.7,29.77,North,0,0.0,10.0,25,0.00,,,0.00,VWS V12.07,2013-08-01 05:19:00,
2013-07-31 22:29:00,70.8,33.3,29.77,North,0,0.0,10.0,25,0.00,,,0.00,VWS V12.07,2013-08-01 05:29:00,
2013-07-31 22:41:00,70.4,33.9,29.76,North,0,0.0,10.0,26,0.00,,,0.00,VWS V12.07,2013-08-01 05:41:00,
2013-07-31 22:49:00,70.6,33.1,29.76,North,356,0.0,10.0,25,0.00,,,0.00,VWS V12.07,2013-08-01 05:49:00,
2013-07-31 22:59:00,70.8,33.3,29.77,NNW,347,0.0,10.0,25,0.00,,,0.00,VWS V12.07,2013-08-01 05:59:00,
2013-07-31 23:11:00,70.9,33.4,29.77,NNW,347,0.0,10.0,25,0.00,,,0.00,VWS V12.07,2013-08-01 06:11:00,
2013-07-31 23:19:00,70.9,33.4,29.77,NNW,338,0.0,10.0,25,0.00,,,0.00,VWS V12.07,2013-08-01 06:19:00,
2013-07-31 23:29:00,70.6,33.1,29.76,NNW,338,1.0,10.0,25,0.00,,,0.00,VWS V12.07,2013-08-01 06:29:00,
2013-07-31 23:41:00,70.4,32.9,29.76,NNW,338,0.0,10.0,25,0.00,,,0.00,VWS V12.07,2013-08-01 06:41:00,
2013-07-31 23:49:00,70.4,32.9,29.76,WNW,284,1.0,10.0,25,0.00,,,0.00,VWS V12.07,2013-08-01 06:49:00,
2013-07-31 23:59:00,70.1,32.7,29.76,NNW,328,0.0,10.0,25,0.00,,,0.00,VWS V12.07,2013-08-01 06:59:00,